Sea Ranch Lakes, Florida
Current Conditions -  °F | °C
As of 6:53 AM on Friday 31 Oct 2014 (Local Time) from KFXE Reporting Station
Clear Clear  
Wind Chill: 70°   Ceiling: Unl
Heat Index: 70°   Visibility: 10mi
Dew Point: 66°   Wind: 3mph
Humidity: 87%   Direction: 250°WSW
Pressure: 29.83"   Gusts: NA
Location:  26.1916°N, 80.1126°W
Report Text: KFXE 311053Z 25003KT 10SM CLR 21/19 A2983 RMK AO2 SLP105 T02110189
Loading
Personal Weather Stations






























Interactive Weather Map
Tropical Storm Tracking
New forecast layout! Learn more

10-Day Weather Forecast

Advertisements
Track Severe Weather on mobile